sensor_id;sensor_type;location;lat;lon;timestamp;temperature;humidity
20915;DHT22;10617;52.032;5.298;2022-10-04T00:00:26;13.50;99.90
20915;DHT22;10617;52.032;5.298;2022-10-04T00:04:30;13.50;99.90
20915;DHT22;10617;52.032;5.298;2022-10-04T00:08:45;13.40;99.90
20915;DHT22;10617;52.032;5.298;2022-10-04T00:12:57;13.40;99.90
20915;DHT22;10617;52.032;5.298;2022-10-04T00:16:59;13.40;99.90
20915;DHT22;10617;52.032;5.298;2022-10-04T00:21:08;13.40;99.90
20915;DHT22;10617;52.032;5.298;2022-10-04T00:29:32;13.30;99.90
20915;DHT22;10617;52.032;5.298;2022-10-04T00:33:35;13.40;99.90
20915;DHT22;10617;52.032;5.298;2022-10-04T00:37:53;13.40;99.90
20915;DHT22;10617;52.032;5.298;2022-10-04T00:55:17;13.40;99.90
20915;DHT22;10617;52.032;5.298;2022-10-04T01:03:41;13.40;99.90
20915;DHT22;10617;52.032;5.298;2022-10-04T01:07:45;13.40;99.90
20915;DHT22;10617;52.032;5.298;2022-10-04T01:11:49;13.30;99.90
20915;DHT22;10617;52.032;5.298;2022-10-04T01:20:24;13.40;99.90
20915;DHT22;10617;52.032;5.298;2022-10-04T01:24:32;13.30;99.90
20915;DHT22;10617;52.032;5.298;2022-10-04T01:28:35;13.30;99.90
20915;DHT22;10617;52.032;5.298;2022-10-04T01:32:37;13.30;99.90
20915;DHT22;10617;52.032;5.298;2022-10-04T01:36:39;13.30;99.90
20915;DHT22;10617;52.032;5.298;2022-10-04T01:40:52;13.30;99.90
20915;DHT22;10617;52.032;5.298;2022-10-04T01:48:59;13.20;99.90
20915;DHT22;10617;52.032;5.298;2022-10-04T01:53:11;13.20;99.90
20915;DHT22;10617;52.032;5.298;2022-10-04T01:57:16;13.20;99.90
20915;DHT22;10617;52.032;5.298;2022-10-04T02:01:34;13.20;99.90
20915;DHT22;10617;52.032;5.298;2022-10-04T02:05:53;13.20;99.90
20915;DHT22;10617;52.032;5.298;2022-10-04T02:09:58;13.20;99.90
20915;DHT22;10617;52.032;5.298;2022-10-04T02:14:01;13.10;99.90
20915;DHT22;10617;52.032;5.298;2022-10-04T02:18:14;13.10;99.90
20915;DHT22;10617;52.032;5.298;2022-10-04T02:22:17;13.00;99.90
20915;DHT22;10617;52.032;5.298;2022-10-04T02:26:19;12.90;99.90
20915;DHT22;10617;52.032;5.298;2022-10-04T02:30:21;12.90;99.90
20915;DHT22;10617;52.032;5.298;2022-10-04T02:34:23;12.80;99.90
20915;DHT22;10617;52.032;5.298;2022-10-04T02:38:27;12.80;99.90
20915;DHT22;10617;52.032;5.298;2022-10-04T02:42:42;12.80;99.90
20915;DHT22;10617;52.032;5.298;2022-10-04T02:57:04;12.70;99.90
20915;DHT22;10617;52.032;5.298;2022-10-04T03:01:13;12.60;99.90
20915;DHT22;10617;52.032;5.298;2022-10-04T03:05:16;12.60;99.90
20915;DHT22;10617;52.032;5.298;2022-10-04T03:09:18;12.50;99.90
20915;DHT22;10617;52.032;5.298;2022-10-04T03:13:21;12.50;99.90
20915;DHT22;10617;52.032;5.298;2022-10-04T03:17:22;12.40;99.90
20915;DHT22;10617;52.032;5.298;2022-10-04T03:21:24;12.40;99.90
20915;DHT22;10617;52.032;5.298;2022-10-04T03:25:30;12.30;99.90
20915;DHT22;10617;52.032;5.298;2022-10-04T03:29:38;12.30;99.90
20915;DHT22;10617;52.032;5.298;2022-10-04T03:33:40;12.30;99.90
20915;DHT22;10617;52.032;5.298;2022-10-04T03:37:43;12.30;99.90
20915;DHT22;10617;52.032;5.298;2022-10-04T03:41:44;12.30;99.90
20915;DHT22;10617;52.032;5.298;2022-10-04T03:45:46;12.30;99.90
20915;DHT22;10617;52.032;5.298;2022-10-04T03:49:49;12.30;99.90
20915;DHT22;10617;52.032;5.298;2022-10-04T03:53:53;12.30;99.90
20915;DHT22;10617;52.032;5.298;2022-10-04T04:03:18;12.30;99.90
20915;DHT22;10617;52.032;5.298;2022-10-04T04:07:24;12.20;99.90
20915;DHT22;10617;52.032;5.298;2022-10-04T04:11:26;12.10;99.90
20915;DHT22;10617;52.032;5.298;2022-10-04T04:15:29;12.10;99.90
20915;DHT22;10617;52.032;5.298;2022-10-04T04:19:31;12.00;99.90
20915;DHT22;10617;52.032;5.298;2022-10-04T04:27:38;11.90;99.90
20915;DHT22;10617;52.032;5.298;2022-10-04T04:31:46;11.80;99.90
20915;DHT22;10617;52.032;5.298;2022-10-04T04:35:55;11.80;99.90
20915;DHT22;10617;52.032;5.298;2022-10-04T04:40:19;11.70;99.90
20915;DHT22;10617;52.032;5.298;2022-10-04T04:44:21;11.70;99.90
20915;DHT22;10617;52.032;5.298;2022-10-04T04:48:23;11.70;99.90
20915;DHT22;10617;52.032;5.298;2022-10-04T04:52:26;11.60;99.90
20915;DHT22;10617;52.032;5.298;2022-10-04T04:56:28;11.60;99.90
20915;DHT22;10617;52.032;5.298;2022-10-04T05:00:31;11.60;99.90
20915;DHT22;10617;52.032;5.298;2022-10-04T05:04:34;11.50;99.90
20915;DHT22;10617;52.032;5.298;2022-10-04T05:08:36;11.50;99.90
20915;DHT22;10617;52.032;5.298;2022-10-04T05:12:41;11.50;99.90
20915;DHT22;10617;52.032;5.298;2022-10-04T05:16:52;11.40;99.90
20915;DHT22;10617;52.032;5.298;2022-10-04T05:20:55;11.40;99.90
20915;DHT22;10617;52.032;5.298;2022-10-04T05:25:08;11.40;99.90
20915;DHT22;10617;52.032;5.298;2022-10-04T05:29:11;11.40;99.90
20915;DHT22;10617;52.032;5.298;2022-10-04T05:33:50;11.30;99.90
20915;DHT22;10617;52.032;5.298;2022-10-04T05:42:05;11.40;99.90
20915;DHT22;10617;52.032;5.298;2022-10-04T05:50:35;11.40;99.90
20915;DHT22;10617;52.032;5.298;2022-10-04T05:54:35;11.40;99.90
20915;DHT22;10617;52.032;5.298;2022-10-04T06:03:05;11.50;99.90
20915;DHT22;10617;52.032;5.298;2022-10-04T06:11:35;11.60;99.90
20915;DHT22;10617;52.032;5.298;2022-10-04T06:24:28;11.60;99.90
20915;DHT22;10617;52.032;5.298;2022-10-04T06:28:33;11.60;99.90
20915;DHT22;10617;52.032;5.298;2022-10-04T06:32:46;11.60;99.90
20915;DHT22;10617;52.032;5.298;2022-10-04T06:36:57;11.60;99.90
20915;DHT22;10617;52.032;5.298;2022-10-04T06:45:17;11.60;99.90
20915;DHT22;10617;52.032;5.298;2022-10-04T06:57:41;11.70;99.90
20915;DHT22;10617;52.032;5.298;2022-10-04T07:01:49;11.70;99.90
20915;DHT22;10617;52.032;5.298;2022-10-04T07:05:53;11.80;99.90
20915;DHT22;10617;52.032;5.298;2022-10-04T07:09:59;11.80;99.90
20915;DHT22;10617;52.032;5.298;2022-10-04T07:18:04;12.00;99.90
20915;DHT22;10617;52.032;5.298;2022-10-04T07:47:22;12.20;99.90
20915;DHT22;10617;52.032;5.298;2022-10-04T07:51:29;12.40;99.90
20915;DHT22;10617;52.032;5.298;2022-10-04T08:12:17;13.00;99.90
20915;DHT22;10617;52.032;5.298;2022-10-04T08:16:31;13.00;99.90
20915;DHT22;10617;52.032;5.298;2022-10-04T08:20:34;13.10;99.90
20915;DHT22;10617;52.032;5.298;2022-10-04T08:24:40;13.20;99.90
20915;DHT22;10617;52.032;5.298;2022-10-04T08:33:16;13.40;99.90
20915;DHT22;10617;52.032;5.298;2022-10-04T08:37:28;13.40;99.90
20915;DHT22;10617;52.032;5.298;2022-10-04T08:41:37;13.50;99.90
20915;DHT22;10617;52.032;5.298;2022-10-04T08:49:51;13.70;99.90
20915;DHT22;10617;52.032;5.298;2022-10-04T08:58:07;13.90;99.90
20915;DHT22;10617;52.032;5.298;2022-10-04T09:06:43;14.00;99.90
20915;DHT22;10617;52.032;5.298;2022-10-04T09:15:21;14.20;99.90
20915;DHT22;10617;52.032;5.298;2022-10-04T09:28:10;14.50;99.90
20915;DHT22;10617;52.032;5.298;2022-10-04T09:36:40;14.70;99.90
20915;DHT22;10617;52.032;5.298;2022-10-04T09:40:49;14.80;99.90
20915;DHT22;10617;52.032;5.298;2022-10-04T09:49:14;14.80;99.90
20915;DHT22;10617;52.032;5.298;2022-10-04T09:57:43;14.90;99.90
20915;DHT22;10617;52.032;5.298;2022-10-04T10:14:50;15.30;99.90
20915;DHT22;10617;52.032;5.298;2022-10-04T10:19:04;15.30;99.90
20915;DHT22;10617;52.032;5.298;2022-10-04T10:48:34;16.90;99.90
20915;DHT22;10617;52.032;5.298;2022-10-04T11:01:13;17.20;99.90
20915;DHT22;10617;52.032;5.298;2022-10-04T11:35:43;17.30;99.90
20915;DHT22;10617;52.032;5.298;2022-10-04T11:48:19;17.10;99.90
20915;DHT22;10617;52.032;5.298;2022-10-04T12:00:42;17.00;99.90
20915;DHT22;10617;52.032;5.298;2022-10-04T12:09:18;17.30;99.90
20915;DHT22;10617;52.032;5.298;2022-10-04T12:21:49;17.70;99.90
20915;DHT22;10617;52.032;5.298;2022-10-04T12:42:26;18.10;99.90
20915;DHT22;10617;52.032;5.298;2022-10-04T12:46:46;18.00;99.90
20915;DHT22;10617;52.032;5.298;2022-10-04T12:55:08;17.90;99.90
20915;DHT22;10617;52.032;5.298;2022-10-04T12:59:31;17.70;99.90
20915;DHT22;10617;52.032;5.298;2022-10-04T13:16:31;17.80;99.90
20915;DHT22;10617;52.032;5.298;2022-10-04T13:20:59;17.90;99.90
20915;DHT22;10617;52.032;5.298;2022-10-04T13:25:17;17.90;99.90
20915;DHT22;10617;52.032;5.298;2022-10-04T13:42:06;18.20;99.90
20915;DHT22;10617;52.032;5.298;2022-10-04T13:54:33;18.50;99.90
20915;DHT22;10617;52.032;5.298;2022-10-04T14:03:28;18.50;99.90
20915;DHT22;10617;52.032;5.298;2022-10-04T14:07:33;18.50;99.90
20915;DHT22;10617;52.032;5.298;2022-10-04T14:12:04;18.50;99.90
20915;DHT22;10617;52.032;5.298;2022-10-04T14:29:13;19.10;99.90
20915;DHT22;10617;52.032;5.298;2022-10-04T14:33:29;19.30;99.90
20915;DHT22;10617;52.032;5.298;2022-10-04T14:51:01;19.30;99.90
20915;DHT22;10617;52.032;5.298;2022-10-04T14:59:20;19.00;99.90
20915;DHT22;10617;52.032;5.298;2022-10-04T15:07:36;18.90;99.90
20915;DHT22;10617;52.032;5.298;2022-10-04T15:11:39;18.90;99.90
20915;DHT22;10617;52.032;5.298;2022-10-04T15:24:12;18.60;99.90
20915;DHT22;10617;52.032;5.298;2022-10-04T15:36:46;18.40;99.90
20915;DHT22;10617;52.032;5.298;2022-10-04T15:49:23;18.20;99.90
20915;DHT22;10617;52.032;5.298;2022-10-04T16:02:02;18.20;99.90
20915;DHT22;10617;52.032;5.298;2022-10-04T16:06:10;18.20;99.90
20915;DHT22;10617;52.032;5.298;2022-10-04T16:18:29;18.20;99.90
20915;DHT22;10617;52.032;5.298;2022-10-04T16:22:36;18.20;99.90
20915;DHT22;10617;52.032;5.298;2022-10-04T16:38:51;18.00;99.90
20915;DHT22;10617;52.032;5.298;2022-10-04T16:47:19;17.80;99.90
20915;DHT22;10617;52.032;5.298;2022-10-04T16:51:25;17.80;99.90
20915;DHT22;10617;52.032;5.298;2022-10-04T16:55:35;17.70;99.90
20915;DHT22;10617;52.032;5.298;2022-10-04T17:09:13;17.60;99.90
20915;DHT22;10617;52.032;5.298;2022-10-04T17:32:17;17.40;99.90
20915;DHT22;10617;52.032;5.298;2022-10-04T17:36:27;17.40;99.90
20915;DHT22;10617;52.032;5.298;2022-10-04T17:40:47;17.40;99.90
20915;DHT22;10617;52.032;5.298;2022-10-04T17:45:05;17.40;99.90
20915;DHT22;10617;52.032;5.298;2022-10-04T17:49:28;17.40;99.90
20915;DHT22;10617;52.032;5.298;2022-10-04T17:53:53;17.40;99.90
20915;DHT22;10617;52.032;5.298;2022-10-04T17:58:16;17.30;99.90
20915;DHT22;10617;52.032;5.298;2022-10-04T18:03:02;17.30;99.90
20915;DHT22;10617;52.032;5.298;2022-10-04T18:11:00;17.30;99.90
20915;DHT22;10617;52.032;5.298;2022-10-04T18:15:19;17.30;99.90
20915;DHT22;10617;52.032;5.298;2022-10-04T18:19:39;17.30;99.90
20915;DHT22;10617;52.032;5.298;2022-10-04T18:23:50;17.30;99.90
20915;DHT22;10617;52.032;5.298;2022-10-04T18:36:28;17.30;99.90
20915;DHT22;10617;52.032;5.298;2022-10-04T18:40:33;17.30;99.90
20915;DHT22;10617;52.032;5.298;2022-10-04T18:44:42;17.30;99.90
20915;DHT22;10617;52.032;5.298;2022-10-04T18:57:12;17.20;99.90
20915;DHT22;10617;52.032;5.298;2022-10-04T19:01:31;17.20;99.90
20915;DHT22;10617;52.032;5.298;2022-10-04T19:05:54;17.20;99.90
20915;DHT22;10617;52.032;5.298;2022-10-04T19:10:15;17.20;99.90
20915;DHT22;10617;52.032;5.298;2022-10-04T19:18:29;17.20;99.90
20915;DHT22;10617;52.032;5.298;2022-10-04T19:39:28;17.10;99.90
20915;DHT22;10617;52.032;5.298;2022-10-04T19:47:51;17.10;99.90
20915;DHT22;10617;52.032;5.298;2022-10-04T19:52:09;17.00;99.90
20915;DHT22;10617;52.032;5.298;2022-10-04T19:56:19;17.00;99.90
20915;DHT22;10617;52.032;5.298;2022-10-04T20:00:21;17.00;99.90
20915;DHT22;10617;52.032;5.298;2022-10-04T20:04:22;17.00;99.90
20915;DHT22;10617;52.032;5.298;2022-10-04T20:17:18;16.90;99.90
20915;DHT22;10617;52.032;5.298;2022-10-04T20:21:29;16.90;99.90
20915;DHT22;10617;52.032;5.298;2022-10-04T20:33:54;16.90;99.90
20915;DHT22;10617;52.032;5.298;2022-10-04T20:42:33;16.90;99.90
20915;DHT22;10617;52.032;5.298;2022-10-04T20:46:35;16.90;99.90
20915;DHT22;10617;52.032;5.298;2022-10-04T20:50:38;16.80;99.90
20915;DHT22;10617;52.032;5.298;2022-10-04T20:54:49;16.80;99.90
20915;DHT22;10617;52.032;5.298;2022-10-04T20:58:53;16.80;99.90
20915;DHT22;10617;52.032;5.298;2022-10-04T21:03:05;16.80;99.90
20915;DHT22;10617;52.032;5.298;2022-10-04T21:07:08;16.70;99.90
20915;DHT22;10617;52.032;5.298;2022-10-04T21:11:15;16.70;99.90
20915;DHT22;10617;52.032;5.298;2022-10-04T21:15:21;16.70;99.90
20915;DHT22;10617;52.032;5.298;2022-10-04T21:23:34;16.70;99.90
20915;DHT22;10617;52.032;5.298;2022-10-04T21:27:37;16.70;99.90
20915;DHT22;10617;52.032;5.298;2022-10-04T21:31:39;16.70;99.90
20915;DHT22;10617;52.032;5.298;2022-10-04T21:35:40;16.70;99.90
20915;DHT22;10617;52.032;5.298;2022-10-04T21:39:42;16.70;99.90
20915;DHT22;10617;52.032;5.298;2022-10-04T21:43:44;16.70;99.90
20915;DHT22;10617;52.032;5.298;2022-10-04T21:47:45;16.60;99.90
20915;DHT22;10617;52.032;5.298;2022-10-04T21:51:47;16.60;99.90
20915;DHT22;10617;52.032;5.298;2022-10-04T21:55:48;16.60;99.90
20915;DHT22;10617;52.032;5.298;2022-10-04T21:59:50;16.60;99.90
20915;DHT22;10617;52.032;5.298;2022-10-04T22:03:52;16.70;99.90
20915;DHT22;10617;52.032;5.298;2022-10-04T22:07:54;16.60;99.90
20915;DHT22;10617;52.032;5.298;2022-10-04T22:11:56;16.60;99.90
20915;DHT22;10617;52.032;5.298;2022-10-04T22:15:57;16.60;99.90
20915;DHT22;10617;52.032;5.298;2022-10-04T22:19:59;16.60;99.90
20915;DHT22;10617;52.032;5.298;2022-10-04T22:24:02;16.50;99.90
20915;DHT22;10617;52.032;5.298;2022-10-04T22:28:12;16.50;99.90
20915;DHT22;10617;52.032;5.298;2022-10-04T22:32:21;16.50;99.90
20915;DHT22;10617;52.032;5.298;2022-10-04T22:36:37;16.50;99.90
20915;DHT22;10617;52.032;5.298;2022-10-04T22:40:38;16.40;99.90
20915;DHT22;10617;52.032;5.298;2022-10-04T22:44:40;16.40;99.90
20915;DHT22;10617;52.032;5.298;2022-10-04T22:48:42;16.40;99.90
20915;DHT22;10617;52.032;5.298;2022-10-04T22:52:45;16.40;99.90
20915;DHT22;10617;52.032;5.298;2022-10-04T22:56:47;16.40;99.90
20915;DHT22;10617;52.032;5.298;2022-10-04T23:00:49;16.30;99.90
20915;DHT22;10617;52.032;5.298;2022-10-04T23:04:51;16.30;99.90
20915;DHT22;10617;52.032;5.298;2022-10-04T23:08:54;16.30;99.90
20915;DHT22;10617;52.032;5.298;2022-10-04T23:12:55;16.30;99.90
20915;DHT22;10617;52.032;5.298;2022-10-04T23:16:57;16.30;99.90
20915;DHT22;10617;52.032;5.298;2022-10-04T23:20:59;16.20;99.90
20915;DHT22;10617;52.032;5.298;2022-10-04T23:25:01;16.20;99.90
20915;DHT22;10617;52.032;5.298;2022-10-04T23:29:29;16.20;99.90
20915;DHT22;10617;52.032;5.298;2022-10-04T23:33:28;16.30;99.90
20915;DHT22;10617;52.032;5.298;2022-10-04T23:37:30;16.20;99.90
20915;DHT22;10617;52.032;5.298;2022-10-04T23:41:32;16.20;99.90
20915;DHT22;10617;52.032;5.298;2022-10-04T23:45:34;16.20;99.90
20915;DHT22;10617;52.032;5.298;2022-10-04T23:49:42;16.20;99.90
20915;DHT22;10617;52.032;5.298;2022-10-04T23:53:45;16.20;99.90
20915;DHT22;10617;52.032;5.298;2022-10-04T23:57:48;16.20;99.90
